Time;durP1;ratioP1;P1;durP2;ratioP2;P2;SDS_P1;SDS_P2;PMS_P1;PMS_P2;Temp;Humidity;BMP_temperature;BMP_pressure;BME280_temperature;BME280_humidity;BME280_pressure;Samples;Min_cycle;Max_cycle;Signal;HPM_P1;HPM_P2
2022/08/22 00:02:23;;;;;;;9.43;4.20;;;15.60;99.90;;;;;;5045251;28;20057;-68
2022/08/22 00:04:54;;;;;;;11.80;4.50;;;15.70;99.90;;;;;;5046436;28;20048;-69
2022/08/22 00:07:44;;;;;;;10.13;4.32;;;15.70;99.90;;;;;;5029386;28;20444;-69
2022/08/22 00:10:23;;;;;;;11.68;4.22;;;15.60;99.90;;;;;;5045114;28;20051;-69
2022/08/22 00:13:12;;;;;;;12.60;4.70;;;15.60;99.90;;;;;;5045531;28;20125;-69
2022/08/22 00:15:46;;;;;;;6.47;3.60;;;15.70;99.90;;;;;;5046016;28;20136;-69
2022/08/22 00:18:27;;;;;;;8.73;3.97;;;15.60;99.90;;;;;;5031017;28;20045;-68
2022/08/22 00:21:11;;;;;;;11.68;4.22;;;15.60;99.90;;;;;;5042461;28;20045;-69
2022/08/22 00:23:48;;;;;;;8.57;4.10;;;15.60;99.90;;;;;;5045343;28;20458;-68
2022/08/22 00:26:38;;;;;;;9.48;4.00;;;15.70;99.90;;;;;;5034688;28;20053;-69
2022/08/22 00:29:14;;;;;;;12.13;4.40;;;15.70;99.90;;;;;;5041857;28;20456;-69
2022/08/22 00:31:45;;;;;;;10.05;3.80;;;15.70;99.90;;;;;;5045144;28;20088;-69
2022/08/22 00:34:21;;;;;;;13.38;4.00;;;15.70;99.90;;;;;;5046430;28;20045;-69
2022/08/22 00:37:15;;;;;;;10.98;3.92;;;15.70;99.90;;;;;;5031705;28;20041;-69
2022/08/22 00:39:50;;;;;;;9.60;3.53;;;15.60;99.90;;;;;;5041960;28;20053;-68
2022/08/22 00:42:28;;;;;;;11.23;3.55;;;15.60;99.90;;;;;;5044514;28;20136;-68
2022/08/22 00:45:35;;;;;;;8.77;3.83;;;15.70;99.90;;;;;;5044031;28;20045;-68
2022/08/22 00:48:23;;;;;;;9.20;4.00;;;15.70;99.90;;;;;;5027902;28;20077;-68
2022/08/22 00:51:26;;;;;;;8.43;3.95;;;15.60;99.90;;;;;;5046257;28;20041;-69
2022/08/22 00:54:21;;;;;;;9.52;3.70;;;15.70;99.90;;;;;;5030497;28;20101;-69
2022/08/22 00:56:58;;;;;;;9.18;3.58;;;15.70;99.90;;;;;;5029644;28;20041;-70
2022/08/22 00:59:53;;;;;;;9.75;3.80;;;15.70;99.90;;;;;;5038369;28;20501;-69
2022/08/22 01:02:30;;;;;;;9.98;3.95;;;15.60;99.90;;;;;;5040301;28;20052;-68
2022/08/22 01:04:59;;;;;;;9.35;3.42;;;15.70;99.90;;;;;;5040790;28;20136;-69
2022/08/22 01:07:47;;;;;;;11.57;3.70;;;15.70;99.90;;;;;;5024963;28;20124;-68
2022/08/22 01:10:22;;;;;;;8.32;3.55;;;15.70;99.90;;;;;;5040774;28;20045;-68
2022/08/22 01:13:22;;;;;;;7.40;3.20;;;15.70;99.90;;;;;;5040718;28;20040;-69
2022/08/22 01:15:59;;;;;;;12.45;4.10;;;15.60;99.90;;;;;;5040180;28;20377;-69
2022/08/22 01:18:37;;;;;;;6.47;3.63;;;15.60;99.90;;;;;;5025882;28;21051;-69
2022/08/22 01:21:44;;;;;;;10.65;4.70;;;15.60;99.90;;;;;;5041342;28;20843;-69
2022/08/22 01:25:16;;;;;;;9.27;4.07;;;15.50;99.90;;;;;;5030059;28;20053;-69
2022/08/22 01:28:01;;;;;;;12.18;4.30;;;15.50;99.90;;;;;;5025404;28;20872;-68
2022/08/22 01:30:48;;;;;;;8.38;4.07;;;15.50;99.90;;;;;;5046786;28;20039;-68
2022/08/22 01:33:33;;;;;;;10.32;4.47;;;15.40;99.90;;;;;;5043130;28;20446;-69
2022/08/22 01:36:21;;;;;;;9.35;4.28;;;15.30;99.90;;;;;;5042843;28;20498;-68
2022/08/22 01:39:12;;;;;;;10.88;4.18;;;15.30;99.90;;;;;;5037240;28;20049;-68
2022/08/22 01:41:50;;;;;;;6.72;4.10;;;15.20;99.90;;;;;;5044070;28;20049;-70
2022/08/22 01:44:35;;;;;;;8.50;4.07;;;15.20;99.90;;;;;;5040035;28;20049;-68
2022/08/22 01:47:12;;;;;;;11.65;4.15;;;15.30;99.90;;;;;;5029313;28;20077;-69
2022/08/22 01:50:17;;;;;;;9.57;4.10;;;15.30;99.90;;;;;;5043294;28;20506;-69
2022/08/22 01:52:57;;;;;;;10.43;4.50;;;15.20;99.90;;;;;;5034725;28;20094;-69
2022/08/22 01:55:58;;;;;;;8.85;4.45;;;15.20;99.90;;;;;;5041676;28;20484;-69
2022/08/22 01:58:28;;;;;;;8.73;4.03;;;15.10;99.90;;;;;;5011878;28;20576;-69
2022/08/22 02:01:01;;;;;;;10.90;4.13;;;15.10;99.90;;;;;;5039965;28;20041;-68
2022/08/22 02:03:34;;;;;;;10.60;3.80;;;15.10;99.90;;;;;;5040836;28;20044;-69
2022/08/22 02:06:14;;;;;;;10.43;4.72;;;15.20;99.90;;;;;;5040981;28;20060;-69
2022/08/22 02:08:52;;;;;;;7.93;4.10;;;15.10;99.90;;;;;;5034888;28;20041;-69
2022/08/22 02:11:41;;;;;;;11.15;4.50;;;15.20;99.90;;;;;;5040481;28;20124;-68
2022/08/22 02:14:18;;;;;;;10.57;5.38;;;15.10;99.90;;;;;;5038319;28;20524;-69
2022/08/22 02:16:51;;;;;;;8.95;4.72;;;15.00;99.90;;;;;;5025891;28;20108;-69
2022/08/22 02:19:16;;;;;;;9.40;4.80;;;15.00;99.90;;;;;;5037364;28;20115;-69
2022/08/22 02:21:52;;;;;;;10.68;5.00;;;15.00;99.90;;;;;;5039433;28;20631;-69
2022/08/22 02:24:32;;;;;;;9.25;4.85;;;15.00;99.90;;;;;;5037809;28;20049;-68
2022/08/22 02:27:08;;;;;;;8.82;4.85;;;15.00;99.90;;;;;;5026100;28;20041;-69
2022/08/22 02:30:09;;;;;;;12.32;5.18;;;14.90;99.90;;;;;;5037182;28;20037;-69
2022/08/22 02:32:41;;;;;;;5.80;3.88;;;14.90;99.90;;;;;;4997737;28;20041;-68
2022/08/22 02:35:17;;;;;;;6.78;3.92;;;14.80;99.90;;;;;;5038481;28;20063;-69
2022/08/22 02:38:07;;;;;;;6.00;3.80;;;14.80;99.90;;;;;;5026071;28;20037;-68
2022/08/22 02:41:15;;;;;;;5.70;3.55;;;14.70;99.90;;;;;;5028921;28;20053;-69
2022/08/22 02:43:45;;;;;;;5.97;3.70;;;14.60;99.90;;;;;;5043311;28;20049;-69
2022/08/22 02:46:45;;;;;;;4.72;3.40;;;14.40;99.90;;;;;;5032093;28;20052;-69
2022/08/22 02:49:40;;;;;;;4.43;3.17;;;14.30;99.90;;;;;;5041988;28;20072;-69
2022/08/22 02:52:16;;;;;;;4.60;3.13;;;14.30;99.90;;;;;;5038709;28;20107;-68
2022/08/22 02:54:44;;;;;;;4.40;3.00;;;14.20;99.90;;;;;;5039763;28;20064;-69
2022/08/22 02:57:17;;;;;;;6.75;3.28;;;14.10;99.90;;;;;;5022505;28;20045;-68
2022/08/22 03:00:15;;;;;;;5.65;4.30;;;14.20;99.90;;;;;;5044665;28;20563;-69
2022/08/22 03:02:56;;;;;;;8.30;4.13;;;14.20;99.90;;;;;;5043023;28;20044;-69
2022/08/22 03:05:39;;;;;;;9.70;4.55;;;14.20;99.90;;;;;;5042167;28;20123;-69
2022/08/22 03:08:28;;;;;;;8.18;5.15;;;14.20;99.90;;;;;;5025150;28;20068;-69
2022/08/22 03:11:07;;;;;;;6.53;4.90;;;14.20;99.90;;;;;;5038249;28;20056;-69
2022/08/22 03:13:53;;;;;;;7.45;5.05;;;14.10;99.90;;;;;;5038834;28;20527;-68
2022/08/22 03:16:30;;;;;;;8.80;5.03;;;14.10;99.90;;;;;;5028182;28;20107;-70
2022/08/22 03:19:13;;;;;;;9.32;5.07;;;14.10;99.90;;;;;;5034599;28;20038;-69
2022/08/22 03:21:39;;;;;;;7.57;4.85;;;14.00;99.90;;;;;;5040273;28;20045;-69
2022/08/22 03:24:31;;;;;;;8.98;4.75;;;14.00;99.90;;;;;;5020346;28;20442;-69
2022/08/22 03:27:20;;;;;;;10.82;4.45;;;14.10;99.90;;;;;;5023882;28;20052;-69
2022/08/22 03:29:51;;;;;;;7.38;4.65;;;14.00;99.90;;;;;;5036224;28;20918;-69
2022/08/22 03:32:20;;;;;;;7.70;3.90;;;14.00;99.90;;;;;;5038865;28;20132;-68
2022/08/22 03:34:55;;;;;;;7.45;4.40;;;14.00;99.90;;;;;;5019672;28;20045;-68
2022/08/22 03:37:43;;;;;;;10.70;4.70;;;14.00;99.90;;;;;;5024493;28;20445;-69
2022/08/22 03:40:30;;;;;;;10.07;4.90;;;13.90;99.90;;;;;;5039093;28;20049;-68
2022/08/22 03:43:15;;;;;;;5.93;4.22;;;13.90;99.90;;;;;;5037953;28;20819;-69
2022/08/22 03:46:08;;;;;;;9.00;4.82;;;13.90;99.90;;;;;;5039252;28;20531;-68
2022/08/22 03:48:49;;;;;;;7.72;4.43;;;13.90;99.90;;;;;;5028788;28;20061;-69
2022/08/22 03:51:24;;;;;;;8.68;4.85;;;13.80;99.90;;;;;;5019366;28;20077;-69
2022/08/22 03:53:58;;;;;;;9.02;5.25;;;13.80;99.90;;;;;;5037308;28;20045;-69
2022/08/22 03:57:00;;;;;;;6.78;3.67;;;13.80;99.90;;;;;;5027744;28;20041;-69
2022/08/22 04:00:03;;;;;;;5.15;3.00;;;13.70;99.90;;;;;;5038434;28;20049;-69
2022/08/22 04:02:42;;;;;;;2.72;2.05;;;13.60;99.90;;;;;;5021033;28;20095;-69
2022/08/22 04:05:32;;;;;;;3.58;1.75;;;13.50;99.90;;;;;;5039730;28;20044;-68
2022/08/22 04:08:19;;;;;;;5.20;3.28;;;13.40;99.90;;;;;;5022526;28;20120;-68
2022/08/22 04:11:14;;;;;;;4.72;2.92;;;13.30;99.90;;;;;;5044456;28;20048;-69
2022/08/22 04:14:02;;;;;;;3.67;1.80;;;13.30;99.90;;;;;;5011578;28;20140;-69
2022/08/22 04:16:28;;;;;;;5.30;1.45;;;13.30;99.90;;;;;;5009245;28;20049;-69
2022/08/22 04:19:16;;;;;;;3.13;1.77;;;13.20;99.90;;;;;;5033733;28;20844;-69
2022/08/22 04:21:54;;;;;;;8.35;1.90;;;13.20;99.90;;;;;;5039996;28;20122;-69
2022/08/22 04:24:34;;;;;;;7.25;2.17;;;13.10;99.90;;;;;;5020304;28;20392;-69
2022/08/22 04:27:32;;;;;;;3.80;1.98;;;13.10;99.90;;;;;;5001715;28;20691;-69
2022/08/22 04:30:14;;;;;;;6.60;3.53;;;13.10;99.90;;;;;;5015642;28;20125;-69
2022/08/22 04:33:09;;;;;;;10.38;4.38;;;13.20;99.90;;;;;;5018963;28;20119;-69
2022/08/22 04:35:54;;;;;;;8.70;5.50;;;13.20;99.90;;;;;;5025236;28;20056;-69
2022/08/22 04:38:23;;;;;;;8.65;5.72;;;13.20;99.90;;;;;;5008974;28;20048;-69
2022/08/22 04:40:57;;;;;;;9.38;5.97;;;13.20;99.90;;;;;;5022520;28;20140;-68
2022/08/22 04:43:43;;;;;;;9.98;5.65;;;13.20;99.90;;;;;;5023467;28;20084;-68
2022/08/22 04:46:22;;;;;;;9.02;4.97;;;13.30;99.90;;;;;;5015962;28;20045;-69
2022/08/22 04:49:15;;;;;;;8.02;5.53;;;13.30;99.90;;;;;;5020002;28;20053;-69
2022/08/22 04:51:45;;;;;;;8.32;5.28;;;13.30;99.90;;;;;;5020944;28;20103;-69
2022/08/22 04:54:35;;;;;;;7.75;5.40;;;13.40;99.90;;;;;;5025257;28;20041;-68
2022/08/22 04:57:19;;;;;;;8.73;5.28;;;13.30;99.90;;;;;;5005714;28;20103;-68
2022/08/22 04:59:45;;;;;;;11.40;5.78;;;13.40;99.90;;;;;;5021082;28;20073;-69
2022/08/22 05:02:18;;;;;;;10.85;5.80;;;13.40;99.90;;;;;;5020319;28;20084;-68
2022/08/22 05:04:48;;;;;;;10.65;5.35;;;13.40;99.90;;;;;;5023949;28;20045;-71
2022/08/22 05:07:19;;;;;;;11.38;5.22;;;13.40;99.90;;;;;;5009681;28;20107;-70
2022/08/22 05:09:55;;;;;;;8.90;5.40;;;13.30;99.90;;;;;;5041901;28;20049;-71
2022/08/22 05:12:31;;;;;;;9.45;5.78;;;13.40;99.90;;;;;;5037616;28;20069;-70
2022/08/22 05:15:02;;;;;;;10.07;5.97;;;13.40;99.90;;;;;;5025147;28;20045;-71
2022/08/22 05:17:30;;;;;;;9.02;6.50;;;13.50;99.90;;;;;;5014758;28;20488;-71
2022/08/22 05:20:02;;;;;;;9.13;6.03;;;13.50;99.90;;;;;;5042354;28;20527;-71
2022/08/22 05:22:33;;;;;;;9.95;5.68;;;13.40;99.90;;;;;;5042828;28;20052;-70
2022/08/22 05:25:13;;;;;;;9.00;5.93;;;13.50;99.90;;;;;;5040495;28;20413;-71
2022/08/22 05:27:44;;;;;;;9.38;5.80;;;13.50;99.90;;;;;;5022795;28;20046;-70
2022/08/22 05:30:21;;;;;;;5.53;4.32;;;13.60;99.90;;;;;;5022478;28;20077;-70
2022/08/22 05:32:59;;;;;;;6.75;4.53;;;13.60;99.90;;;;;;5029226;28;20065;-70
2022/08/22 05:35:49;;;;;;;7.90;4.22;;;13.60;99.90;;;;;;5041932;28;20053;-70
2022/08/22 05:38:21;;;;;;;8.80;4.95;;;13.70;99.90;;;;;;5024162;28;20567;-70
2022/08/22 05:40:57;;;;;;;10.35;6.03;;;13.70;99.90;;;;;;5040767;28;20531;-70
2022/08/22 05:43:25;;;;;;;15.52;8.50;;;13.80;99.90;;;;;;5041593;28;20069;-70
2022/08/22 05:45:54;;;;;;;14.50;7.72;;;13.90;99.90;;;;;;5041032;28;20095;-70
2022/08/22 05:48:29;;;;;;;16.70;9.38;;;14.10;99.90;;;;;;5024798;28;20146;-71
2022/08/22 05:50:59;;;;;;;20.15;10.02;;;14.30;99.90;;;;;;5044700;28;20099;-70
2022/08/22 05:53:49;;;;;;;14.48;9.13;;;14.40;99.90;;;;;;5041824;28;20056;-70
2022/08/22 05:56:40;;;;;;;12.20;8.45;;;14.60;99.90;;;;;;5031005;28;20496;-71
2022/08/22 05:59:21;;;;;;;15.88;9.45;;;14.80;99.90;;;;;;5040062;28;20076;-70
2022/08/22 06:01:47;;;;;;;15.73;9.88;;;15.10;99.90;;;;;;5040823;28;20044;-70
2022/08/22 06:04:44;;;;;;;17.10;9.85;;;15.20;99.90;;;;;;5040445;28;20045;-70
2022/08/22 06:07:36;;;;;;;15.88;9.88;;;15.40;99.90;;;;;;5026563;28;20103;-70
2022/08/22 06:10:32;;;;;;;16.67;9.40;;;15.80;99.90;;;;;;5040220;28;20049;-70
2022/08/22 06:13:28;;;;;;;18.23;8.73;;;16.00;99.90;;;;;;5031046;28;20053;-70
2022/08/22 06:16:10;;;;;;;10.45;7.25;;;16.30;99.90;;;;;;5029244;28;20785;-71
2022/08/22 06:18:38;;;;;;;14.07;8.10;;;16.50;99.90;;;;;;5026410;28;20044;-71
2022/08/22 06:21:12;;;;;;;13.23;7.15;;;16.60;99.90;;;;;;5039984;28;20049;-71
2022/08/22 06:23:58;;;;;;;14.55;6.88;;;16.80;99.90;;;;;;5018281;28;20127;-71
2022/08/22 06:26:32;;;;;;;15.70;6.95;;;16.80;99.90;;;;;;5027265;28;20124;-71
2022/08/22 06:29:00;;;;;;;9.40;6.93;;;16.80;99.90;;;;;;5015825;28;20041;-70
2022/08/22 06:31:31;;;;;;;16.20;6.97;;;16.80;99.90;;;;;;5003870;28;20052;-71
2022/08/22 06:34:22;;;;;;;12.43;7.32;;;16.80;99.90;;;;;;5031695;28;20068;-71
2022/08/22 06:36:50;;;;;;;16.38;7.13;;;16.80;99.90;;;;;;5019405;28;20049;-72
2022/08/22 06:39:31;;;;;;;11.45;6.72;;;16.80;99.90;;;;;;5032591;28;20683;-71
2022/08/22 06:42:07;;;;;;;12.45;5.90;;;16.90;99.90;;;;;;5035389;28;20190;-71
2022/08/22 06:44:47;;;;;;;14.52;5.93;;;16.90;99.90;;;;;;5030042;28;20037;-71
2022/08/22 06:47:25;;;;;;;11.98;6.28;;;17.00;99.90;;;;;;5000888;28;20455;-71
2022/08/22 06:49:58;;;;;;;15.00;7.25;;;17.00;99.90;;;;;;5016015;28;20053;-70
2022/08/22 06:52:26;;;;;;;14.00;7.22;;;17.00;99.90;;;;;;5014519;28;20048;-71
2022/08/22 06:55:12;;;;;;;14.13;8.07;;;17.00;99.90;;;;;;5017218;28;20040;-71
2022/08/22 06:57:59;;;;;;;12.70;6.68;;;17.20;99.90;;;;;;5022159;28;20037;-71
2022/08/22 07:00:26;;;;;;;11.20;6.82;;;17.10;99.90;;;;;;5032196;28;20120;-71
2022/08/22 07:03:06;;;;;;;12.27;7.63;;;17.20;99.90;;;;;;5034968;28;20040;-70
2022/08/22 07:05:38;;;;;;;16.70;7.13;;;17.30;99.90;;;;;;5035848;28;20531;-71
2022/08/22 07:08:14;;;;;;;15.93;7.35;;;17.40;99.90;;;;;;5000153;28;20124;-71
2022/08/22 07:10:42;;;;;;;15.77;7.55;;;17.30;99.90;;;;;;5016493;28;20132;-71
2022/08/22 07:13:15;;;;;;;13.20;6.97;;;17.40;99.90;;;;;;5036313;28;20131;-71
2022/08/22 07:15:42;;;;;;;15.98;7.70;;;17.40;99.90;;;;;;5015880;28;20045;-71
2022/08/22 07:18:18;;;;;;;12.90;7.22;;;17.40;99.90;;;;;;5020104;28;20049;-71
2022/08/22 07:20:49;;;;;;;15.50;7.20;;;17.50;99.90;;;;;;5018105;28;20097;-71
2022/08/22 07:23:36;;;;;;;13.20;6.72;;;17.50;99.90;;;;;;5034768;28;20053;-71
2022/08/22 07:26:05;;;;;;;14.82;6.85;;;17.50;99.90;;;;;;5017104;28;20473;-71
2022/08/22 07:28:38;;;;;;;16.60;6.88;;;17.50;99.90;;;;;;5001457;28;20139;-71
2022/08/22 07:31:23;;;;;;;10.82;6.75;;;17.60;99.90;;;;;;5017523;28;20108;-70
2022/08/22 07:33:53;;;;;;;16.08;7.35;;;17.60;99.90;;;;;;5034767;28;20067;-71
2022/08/22 07:36:44;;;;;;;17.38;7.65;;;17.70;99.90;;;;;;5001207;28;20060;-71
2022/08/22 07:39:35;;;;;;;13.43;6.53;;;17.70;99.90;;;;;;5006847;28;20063;-71
2022/08/22 07:42:04;;;;;;;10.32;5.97;;;17.70;99.90;;;;;;5007272;28;21342;-71
2022/08/22 07:44:48;;;;;;;14.07;6.78;;;17.70;99.90;;;;;;5008024;28;20057;-71
2022/08/22 07:47:18;;;;;;;15.13;6.40;;;17.90;99.90;;;;;;4990494;28;20132;-71
2022/08/22 07:50:05;;;;;;;16.40;6.32;;;18.00;99.90;;;;;;4987981;28;20065;-71
2022/08/22 07:52:40;;;;;;;16.00;6.22;;;18.00;99.90;;;;;;5008057;28;20053;-71
2022/08/22 07:55:06;;;;;;;13.05;6.18;;;18.10;99.90;;;;;;4989269;28;20061;-71
2022/08/22 07:57:56;;;;;;;12.20;5.03;;;18.20;99.90;;;;;;4976870;28;20049;-71
2022/08/22 08:00:23;;;;;;;10.90;4.28;;;18.20;99.90;;;;;;4984251;28;20615;-71
2022/08/22 08:02:55;;;;;;;14.40;4.80;;;18.20;99.90;;;;;;4990769;28;20060;-71
2022/08/22 08:05:23;;;;;;;16.33;5.25;;;18.30;99.90;;;;;;4987661;28;20053;-71
2022/08/22 08:07:52;;;;;;;11.70;4.40;;;18.30;99.90;;;;;;4982782;28;20049;-71
2022/08/22 08:10:24;;;;;;;9.45;4.07;;;18.40;99.90;;;;;;5013909;28;20057;-71
2022/08/22 08:12:57;;;;;;;12.80;4.72;;;18.40;99.90;;;;;;4999049;28;20554;-71
2022/08/22 08:15:23;;;;;;;12.60;4.70;;;18.50;99.90;;;;;;5012869;28;20048;-71
2022/08/22 08:17:57;;;;;;;12.77;4.95;;;18.50;99.90;;;;;;4999703;28;20037;-71
2022/08/22 08:20:25;;;;;;;12.90;4.47;;;18.50;99.90;;;;;;5001469;28;20053;-71
2022/08/22 08:22:52;;;;;;;9.45;3.25;;;18.50;99.90;;;;;;4981144;28;20056;-71
2022/08/22 08:25:23;;;;;;;13.10;3.70;;;18.50;99.90;;;;;;5011846;28;20049;-71
2022/08/22 08:30:43;;;;;;;10.75;3.40;;;18.60;99.90;;;;;;4964697;28;20496;-71
2022/08/22 08:33:15;;;;;;;18.05;3.60;;;18.60;99.90;;;;;;4994644;28;20060;-71
2022/08/22 08:35:47;;;;;;;10.95;3.10;;;18.60;99.90;;;;;;5016046;28;20342;-71
2022/08/22 08:38:22;;;;;;;10.23;2.65;;;18.60;99.90;;;;;;4984286;28;20516;-71
2022/08/22 08:41:14;;;;;;;11.68;2.75;;;18.60;99.90;;;;;;4979853;28;20056;-71
2022/08/22 08:44:03;;;;;;;11.90;3.45;;;18.70;99.90;;;;;;4986990;28;20057;-71
2022/08/22 08:46:54;;;;;;;13.93;3.10;;;18.80;99.90;;;;;;4969746;28;20044;-71
2022/08/22 08:49:30;;;;;;;;;;;18.80;99.90;;;;;;4978701;28;20042;-71
2022/08/22 08:52:15;;;;;;;11.68;3.20;;;18.90;99.90;;;;;;4982674;28;20718;-71
2022/08/22 08:55:08;;;;;;;10.75;3.20;;;18.90;99.90;;;;;;4997790;28;20049;-72
2022/08/22 08:57:52;;;;;;;13.35;4.45;;;19.00;99.90;;;;;;4987650;28;20055;-70
2022/08/22 09:00:40;;;;;;;11.75;2.95;;;19.20;99.90;;;;;;5005323;28;20417;-71
2022/08/22 09:03:09;;;;;;;12.23;3.05;;;19.20;99.90;;;;;;4998928;28;20099;-71
2022/08/22 09:05:50;;;;;;;11.50;2.90;;;19.40;99.90;;;;;;5003428;28;20051;-71
2022/08/22 09:08:19;;;;;;;11.55;2.65;;;19.50;99.90;;;;;;4989346;28;20118;-71
2022/08/22 09:11:03;;;;;;;7.32;2.30;;;19.60;99.90;;;;;;4998345;28;20049;-72
2022/08/22 09:13:47;;;;;;;10.68;2.70;;;19.60;99.90;;;;;;5007561;28;20056;-71
2022/08/22 09:16:23;;;;;;;10.15;3.22;;;19.60;99.90;;;;;;4993332;28;20063;-72
2022/08/22 09:18:58;;;;;;;10.10;3.03;;;19.50;99.90;;;;;;4989402;28;20379;-71
2022/08/22 09:21:35;;;;;;;10.52;2.92;;;19.80;99.90;;;;;;4981218;28;20053;-72
2022/08/22 09:24:19;;;;;;;10.93;3.25;;;19.80;99.90;;;;;;4979388;28;20060;-71
2022/08/22 09:26:49;;;;;;;11.02;3.00;;;19.90;99.90;;;;;;4969461;28;20729;-72
2022/08/22 09:29:53;;;;;;;8.97;2.93;;;19.90;99.90;;;;;;4985304;28;20046;-71
2022/08/22 09:32:34;;;;;;;11.05;3.00;;;20.00;99.90;;;;;;4982799;28;20038;-71
2022/08/22 09:35:06;;;;;;;8.55;2.72;;;20.10;99.90;;;;;;4979040;28;20132;-73
2022/08/22 09:37:56;;;;;;;10.70;2.70;;;20.10;99.90;;;;;;4973896;28;20638;-71
2022/08/22 09:40:48;;;;;;;9.88;2.65;;;20.20;99.90;;;;;;4993498;28;20057;-71
2022/08/22 09:43:39;;;;;;;10.25;2.78;;;20.10;99.90;;;;;;5000569;28;20049;-71
2022/08/22 09:46:15;;;;;;;13.15;2.60;;;20.10;99.90;;;;;;4992915;28;21898;-71
2022/08/22 09:48:41;;;;;;;9.60;2.58;;;20.10;99.90;;;;;;4980715;28;20080;-72
2022/08/22 09:51:13;;;;;;;9.38;2.50;;;20.10;99.90;;;;;;4982052;28;20065;-72
2022/08/22 09:54:13;;;;;;;9.02;2.30;;;20.10;99.90;;;;;;4985352;28;20053;-72
2022/08/22 09:56:55;;;;;;;6.57;2.22;;;20.20;99.90;;;;;;4985953;28;20080;-71
2022/08/22 09:59:32;;;;;;;6.00;2.17;;;20.30;99.90;;;;;;5006935;28;21021;-72
2022/08/22 10:02:28;;;;;;;10.63;2.95;;;20.40;99.90;;;;;;4979676;28;20096;-71
2022/08/22 10:05:24;;;;;;;9.40;2.65;;;20.50;99.90;;;;;;5001784;28;20106;-71
2022/08/22 10:07:58;;;;;;;12.70;2.67;;;20.30;99.90;;;;;;4987867;28;20095;-72
2022/08/22 10:10:44;;;;;;;9.35;2.92;;;20.40;99.90;;;;;;4981597;28;20503;-72
2022/08/22 10:13:36;;;;;;;11.32;2.70;;;20.50;99.90;;;;;;5002478;28;20504;-71
2022/08/22 10:16:15;;;;;;;12.30;2.85;;;20.50;99.90;;;;;;4999807;28;20046;-71
2022/08/22 10:19:16;;;;;;;7.55;2.47;;;20.40;99.90;;;;;;4993431;28;20072;-71
2022/08/22 10:21:50;;;;;;;9.13;2.40;;;20.60;99.90;;;;;;4997376;28;20092;-71
2022/08/22 10:24:30;;;;;;;7.43;2.40;;;20.60;99.90;;;;;;5001157;28;20067;-71
2022/08/22 10:27:02;;;;;;;11.85;2.78;;;20.80;99.90;;;;;;4989392;28;20204;-71
2022/08/22 10:29:34;;;;;;;8.20;2.47;;;20.80;99.90;;;;;;5014783;28;20152;-72
2022/08/22 10:32:38;;;;;;;12.23;2.70;;;20.80;99.90;;;;;;5003735;28;20056;-70
2022/08/22 10:35:32;;;;;;;8.75;2.60;;;20.80;99.90;;;;;;4960809;28;20118;-71
2022/08/22 10:38:11;;;;;;;7.18;2.45;;;20.90;99.90;;;;;;5008463;28;20044;-71
2022/08/22 10:40:45;;;;;;;8.07;2.50;;;20.80;99.90;;;;;;5024749;28;20065;-71
2022/08/22 10:43:31;;;;;;;8.95;2.15;;;20.80;99.90;;;;;;5002240;28;20199;-71
2022/08/22 10:46:11;;;;;;;9.15;2.40;;;20.90;99.90;;;;;;5014545;28;20136;-72
2022/08/22 10:48:59;;;;;;;10.50;2.15;;;20.90;99.90;;;;;;4988566;28;20057;-72
2022/08/22 10:51:34;;;;;;;9.18;2.88;;;21.10;99.90;;;;;;4994277;28;20053;-71
2022/08/22 10:54:12;;;;;;;8.82;2.92;;;21.00;99.90;;;;;;4996606;28;20060;-72
2022/08/22 10:57:14;;;;;;;8.65;2.72;;;21.20;99.90;;;;;;4980235;28;20060;-71
2022/08/22 10:59:51;;;;;;;9.55;2.58;;;21.20;99.90;;;;;;4977901;28;20051;-71
2022/08/22 11:02:16;;;;;;;7.28;1.83;;;21.30;99.90;;;;;;5013778;28;20059;-72
2022/08/22 11:05:00;;;;;;;6.57;2.28;;;21.30;99.90;;;;;;5031555;28;20053;-71
2022/08/22 11:08:03;;;;;;;8.13;2.33;;;21.20;99.90;;;;;;5013453;28;20159;-71
2022/08/22 11:10:47;;;;;;;7.47;2.10;;;21.10;99.90;;;;;;4995960;28;20056;-72
2022/08/22 11:13:22;;;;;;;8.48;2.30;;;21.10;99.90;;;;;;5011532;28;20483;-71
2022/08/22 11:16:02;;;;;;;8.90;2.72;;;21.30;99.90;;;;;;5011483;28;20646;-71
2022/08/22 11:18:50;;;;;;;10.10;2.60;;;21.30;99.90;;;;;;4994333;28;20080;-72
2022/08/22 11:21:29;;;;;;;6.53;2.00;;;21.30;99.90;;;;;;5011553;28;20705;-71
2022/08/22 11:24:19;;;;;;;6.93;2.78;;;21.30;99.90;;;;;;5014115;28;20160;-71
2022/08/22 11:27:23;;;;;;;9.50;2.70;;;21.50;99.90;;;;;;4990150;28;20049;-71
2022/08/22 11:30:07;;;;;;;8.40;2.30;;;21.50;99.90;;;;;;5001779;28;20053;-71
2022/08/22 11:33:12;;;;;;;11.25;2.72;;;21.60;99.90;;;;;;5015432;28;20060;-72
2022/08/22 11:36:07;;;;;;;9.63;3.20;;;21.50;99.90;;;;;;4984534;28;20061;-71
2022/08/22 11:38:44;;;;;;;6.68;2.33;;;21.60;99.90;;;;;;5016898;28;20051;-71
2022/08/22 11:41:25;;;;;;;8.57;2.75;;;21.70;99.90;;;;;;5013903;28;20148;-71
2022/08/22 11:44:18;;;;;;;7.95;2.42;;;21.70;99.90;;;;;;5025340;28;20076;-72
2022/08/22 11:46:48;;;;;;;9.35;2.55;;;21.60;99.90;;;;;;5010538;28;20045;-72
2022/08/22 11:49:32;;;;;;;6.93;2.22;;;21.70;99.90;;;;;;5022144;28;20072;-71
2022/08/22 11:52:02;;;;;;;8.00;2.25;;;21.80;99.90;;;;;;5019164;28;20500;-72
2022/08/22 11:54:46;;;;;;;10.60;2.45;;;21.90;99.90;;;;;;5020195;28;20049;-72
2022/08/22 11:57:18;;;;;;;7.03;2.50;;;21.60;99.90;;;;;;5002308;28;21455;-71
2022/08/22 11:59:43;;;;;;;10.52;2.92;;;21.50;99.90;;;;;;5022584;28;20093;-71
2022/08/22 12:02:17;;;;;;;8.48;2.58;;;21.60;99.90;;;;;;5018050;28;20398;-71
2022/08/22 12:04:50;;;;;;;8.20;2.60;;;21.70;99.90;;;;;;5025043;28;21195;-71
2022/08/22 12:07:21;;;;;;;9.93;2.20;;;21.80;99.90;;;;;;5007069;28;20049;-71
2022/08/22 12:09:56;;;;;;;8.32;2.40;;;21.90;99.90;;;;;;5023882;28;20044;-71
2022/08/22 12:12:33;;;;;;;5.72;2.05;;;22.00;99.90;;;;;;5021269;28;20385;-72
2022/08/22 12:15:18;;;;;;;7.45;2.40;;;22.00;99.90;;;;;;5022296;28;20044;-71
2022/08/22 12:18:07;;;;;;;7.03;2.30;;;21.80;99.90;;;;;;5008199;28;20072;-71
2022/08/22 12:20:52;;;;;;;9.25;2.42;;;21.80;99.90;;;;;;5020221;28;20045;-71
2022/08/22 12:23:24;;;;;;;4.55;1.98;;;22.00;99.90;;;;;;5017940;28;20068;-71
2022/08/22 12:26:04;;;;;;;7.95;2.20;;;22.10;99.90;;;;;;5027588;28;20637;-71
2022/08/22 12:28:55;;;;;;;8.35;2.30;;;22.10;99.90;;;;;;5007943;28;20049;-71
2022/08/22 12:31:36;;;;;;;4.47;1.85;;;22.10;99.90;;;;;;5018714;28;20344;-71
2022/08/22 12:34:27;;;;;;;6.40;2.10;;;22.20;99.90;;;;;;5019313;28;20397;-71
2022/08/22 12:37:05;;;;;;;8.15;2.40;;;22.30;99.90;;;;;;5006937;28;20060;-72
2022/08/22 12:40:15;;;;;;;7.10;2.00;;;22.30;99.90;;;;;;5020838;28;20056;-72
2022/08/22 12:42:47;;;;;;;7.03;2.03;;;22.40;99.90;;;;;;5019458;28;20061;-70
2022/08/22 12:45:21;;;;;;;8.13;2.13;;;22.40;99.90;;;;;;5022990;28;20061;-71
2022/08/22 12:48:05;;;;;;;10.65;2.47;;;22.50;99.90;;;;;;5004964;28;20059;-71
2022/08/22 12:50:46;;;;;;;9.30;2.38;;;22.40;99.90;;;;;;5023472;28;20042;-71
2022/08/22 12:53:33;;;;;;;7.53;2.10;;;22.50;99.90;;;;;;5023673;28;20068;-71
2022/08/22 12:56:13;;;;;;;8.18;2.30;;;22.50;99.90;;;;;;5024132;28;20131;-72
2022/08/22 12:59:04;;;;;;;8.15;2.10;;;22.50;99.90;;;;;;5020621;28;20045;-71
2022/08/22 13:01:41;;;;;;;7.20;1.80;;;22.50;99.90;;;;;;5025318;28;20144;-71
2022/08/22 13:04:13;;;;;;;9.70;2.10;;;22.50;99.90;;;;;;5032010;28;20057;-71
2022/08/22 13:07:02;;;;;;;7.63;2.00;;;22.40;99.90;;;;;;5009902;28;20484;-71
2022/08/22 13:09:31;;;;;;;7.13;2.00;;;22.50;99.90;;;;;;5009075;28;20060;-71
2022/08/22 13:12:23;;;;;;;6.15;1.90;;;22.60;99.90;;;;;;5025324;28;20045;-71
2022/08/22 13:14:54;;;;;;;9.73;1.98;;;22.70;99.90;;;;;;5026201;28;20055;-71
2022/08/22 13:17:21;;;;;;;7.13;1.90;;;22.70;99.90;;;;;;5010711;28;20052;-71
2022/08/22 13:19:54;;;;;;;8.68;2.03;;;22.60;99.90;;;;;;5022785;28;20052;-71
2022/08/22 13:22:25;;;;;;;5.60;1.90;;;22.60;99.90;;;;;;5027735;28;20045;-71
2022/08/22 13:25:16;;;;;;;5.07;1.83;;;22.70;99.90;;;;;;5028181;28;20537;-71
2022/08/22 13:27:44;;;;;;;;;;;22.80;99.90;;;;;;5004301;28;20727;-70
2022/08/22 13:30:19;;;;;;;4.03;1.90;;;22.60;99.90;;;;;;5022961;28;19951;-71
2022/08/22 13:32:52;;;;;;;8.45;2.05;;;22.70;99.90;;;;;;5021945;28;20126;-70
2022/08/22 13:35:20;;;;;;;5.47;1.70;;;22.60;99.90;;;;;;5015939;28;20660;-71
2022/08/22 13:37:49;;;;;;;7.63;1.70;;;22.50;99.90;;;;;;5004065;28;20160;-71
2022/08/22 13:40:27;;;;;;;5.88;1.80;;;22.50;99.90;;;;;;5009534;28;20084;-71
2022/08/22 13:43:07;;;;;;;6.13;1.70;;;22.40;99.90;;;;;;5018356;28;20049;-71
2022/08/22 13:45:35;;;;;;;11.15;1.92;;;22.30;99.90;;;;;;5032039;28;20137;-71
2022/08/22 13:48:11;;;;;;;5.85;1.73;;;22.20;99.90;;;;;;5021615;28;20111;-71
2022/08/22 13:50:55;;;;;;;9.50;2.00;;;22.20;99.90;;;;;;5030576;28;20056;-71
2022/08/22 13:53:39;;;;;;;6.78;1.65;;;22.20;99.90;;;;;;5036222;28;20047;-71
2022/08/22 13:56:16;;;;;;;7.57;1.90;;;22.30;99.90;;;;;;5030742;28;20057;-71